createdAt,value
2022-09-21T00:01:39.656Z,102664.69
2022-09-21T00:04:08.135Z,102669.94
2022-09-21T00:06:37.359Z,102662.06
2022-09-21T00:09:08.170Z,102661.19
2022-09-21T00:11:37.756Z,102664.69
2022-09-21T00:14:10.671Z,102660.31
2022-09-21T00:16:40.409Z,102660.25
2022-09-21T00:19:09.394Z,102659.38
2022-09-21T00:21:39.223Z,102661.91
2022-09-21T00:24:08.675Z,102663.47
2022-09-21T00:26:37.278Z,102656.34
2022-09-21T00:29:07.335Z,102669.25
2022-09-21T00:31:36.214Z,102661.31
2022-09-21T00:34:07.694Z,102662.03
2022-09-21T00:36:36.618Z,102656.78
2022-09-21T00:39:05.690Z,102653.34
2022-09-21T00:41:35.904Z,102657.69
2022-09-21T00:44:31.168Z,102654.78
2022-09-21T00:47:05.443Z,102661.59
2022-09-21T00:49:36.499Z,102651.00
2022-09-21T00:52:08.051Z,102648.19
2022-09-21T00:54:42.028Z,102649.69
2022-09-21T00:57:11.178Z,102651.25
2022-09-21T00:59:45.847Z,102659.09
2022-09-21T01:02:17.898Z,102659.97
2022-09-21T01:04:47.212Z,102656.47
2022-09-21T01:07:20.222Z,102663.38
2022-09-21T01:09:53.077Z,102661.59
2022-09-21T01:12:38.436Z,102658.84
2022-09-21T01:15:22.864Z,102665.63
2022-09-21T01:18:00.953Z,102653.16
2022-09-21T01:21:18.769Z,102658.97
2022-09-21T01:24:14.405Z,102658.03
2022-09-21T01:27:15.366Z,102657.78
2022-09-21T01:29:50.332Z,102661.22
2022-09-21T01:32:23.706Z,102663.69
2022-09-21T01:34:57.745Z,102663.66
2022-09-21T01:37:31.424Z,102660.13
2022-09-21T01:40:04.988Z,102660.03
2022-09-21T01:42:35.380Z,102660.84
2022-09-21T01:45:09.134Z,102661.59
2022-09-21T01:47:39.020Z,102657.13
2022-09-21T01:50:10.772Z,102663.91
2022-09-21T01:52:45.994Z,102660.28
2022-09-21T01:55:18.011Z,102663.53
2022-09-21T01:57:56.803Z,102659.97
2022-09-21T02:00:27.733Z,102665.19
2022-09-21T02:03:01.511Z,102660.84
2022-09-21T02:05:31.176Z,102663.44
2022-09-21T02:08:01.400Z,102672.06
2022-09-21T02:10:35.602Z,102667.75
2022-09-21T02:13:07.442Z,102660.84
2022-09-21T02:15:52.436Z,102668.78
2022-09-21T02:18:34.363Z,102675.75
2022-09-21T02:21:09.109Z,102668.88
2022-09-21T02:23:44.676Z,102672.44
2022-09-21T02:26:20.259Z,102674.25
2022-09-21T02:28:54.594Z,102660.34
2022-09-21T02:31:34.226Z,102665.56
2022-09-21T02:34:10.701Z,102669.13
2022-09-21T02:36:46.329Z,102662.16
2022-09-21T02:39:19.586Z,102665.47
2022-09-21T02:42:03.011Z,102663.53
2022-09-21T02:44:37.716Z,102667.75
2022-09-21T02:47:14.112Z,102662.38
2022-09-21T02:49:47.618Z,102666.44
2022-09-21T02:52:18.754Z,102661.97
2022-09-21T02:54:51.358Z,102665.22
2022-09-21T02:57:22.413Z,102659.03
2022-09-21T02:59:51.709Z,102654.66
2022-09-21T03:02:21.431Z,102661.44
2022-09-21T03:04:50.530Z,102660.44
2022-09-21T03:07:19.275Z,102663.81
2022-09-21T03:09:47.559Z,102658.59
2022-09-21T03:12:15.672Z,102655.91
2022-09-21T03:14:43.813Z,102664.41
2022-09-21T03:17:11.927Z,102666.94
2022-09-21T03:19:41.398Z,102665.13
2022-09-21T03:22:09.527Z,102661.44
2022-09-21T03:24:46.788Z,102671.75
2022-09-21T03:27:15.960Z,102671.75
2022-09-21T03:29:44.227Z,102669.00
2022-09-21T03:32:13.806Z,102673.13
2022-09-21T03:34:43.778Z,102665.97
2022-09-21T03:37:12.356Z,102667.63
2022-09-21T03:39:40.521Z,102664.09
2022-09-21T03:42:09.949Z,102672.66
2022-09-21T03:44:38.493Z,102668.19
2022-09-21T03:47:07.538Z,102676.03
2022-09-21T03:49:36.009Z,102670.00
2022-09-21T03:52:05.942Z,102676.31
2022-09-21T03:54:34.346Z,102673.81
2022-09-21T03:57:02.625Z,102679.94
2022-09-21T03:59:30.789Z,102680.84
2022-09-21T04:01:58.976Z,102676.50
2022-09-21T04:04:27.118Z,102675.63
2022-09-21T04:06:55.285Z,102680.75
2022-09-21T04:09:24.782Z,102681.63
2022-09-21T04:11:53.916Z,102682.47
2022-09-21T04:14:26.023Z,102672.72
2022-09-21T04:16:54.236Z,102675.63
2022-09-21T04:19:22.528Z,102685.22
2022-09-21T04:21:51.402Z,102675.66
2022-09-21T04:24:19.938Z,102680.06
2022-09-21T04:26:49.494Z,102671.28
2022-09-21T04:29:18.065Z,102677.13
2022-09-21T04:31:46.190Z,102680.34
2022-09-21T04:34:15.017Z,102676.66
2022-09-21T04:36:43.595Z,102686.03
2022-09-21T04:39:11.743Z,102686.81
2022-09-21T04:41:39.828Z,102686.81
2022-09-21T04:44:09.887Z,102686.72
2022-09-21T04:46:41.080Z,102682.22
2022-09-21T04:49:10.711Z,102690.84
2022-09-21T04:51:38.998Z,102687.28
2022-09-21T04:54:07.693Z,102694.13
2022-09-21T04:56:36.249Z,102688.91
2022-09-21T04:59:04.687Z,102694.00
2022-09-21T05:01:34.579Z,102692.16
2022-09-21T05:04:03.430Z,102695.53
2022-09-21T05:06:32.263Z,102694.59
2022-09-21T05:09:18.439Z,102695.34
2022-09-21T05:11:47.284Z,102704.59
2022-09-21T05:14:15.813Z,102705.44
2022-09-21T05:16:47.582Z,102709.81
2022-09-21T05:19:15.768Z,102710.75
2022-09-21T05:21:44.092Z,102710.75
2022-09-21T05:24:12.227Z,102709.78
2022-09-21T05:26:40.365Z,102717.72
2022-09-21T05:29:09.963Z,102708.19
2022-09-21T05:31:46.753Z,102710.00
2022-09-21T05:34:36.430Z,102716.16
2022-09-21T05:37:11.709Z,102718.81
2022-09-21T05:39:40.741Z,102719.00
2022-09-21T05:42:12.718Z,102716.38
2022-09-21T05:44:41.747Z,102719.94
2022-09-21T05:47:24.713Z,102712.94
2022-09-21T05:50:05.848Z,102718.28
2022-09-21T05:52:42.385Z,102722.00
2022-09-21T05:55:27.392Z,102725.72
2022-09-21T05:58:10.580Z,102725.09
2022-09-21T06:00:48.353Z,102726.25
2022-09-21T06:03:37.055Z,102731.75
2022-09-21T06:06:05.531Z,102734.59
2022-09-21T06:08:33.654Z,102733.97
2022-09-21T06:11:02.065Z,102732.59
2022-09-21T06:13:30.243Z,102734.63
2022-09-21T06:15:58.512Z,102736.84
2022-09-21T06:18:26.626Z,102731.25
2022-09-21T06:20:56.334Z,102739.56
2022-09-21T06:23:24.718Z,102731.34
2022-09-21T06:25:57.520Z,102737.91
2022-09-21T06:28:27.900Z,102737.44
2022-09-21T06:30:57.617Z,102732.69
2022-09-21T06:33:26.023Z,102732.25
2022-09-21T06:35:57.613Z,102736.19
2022-09-21T06:38:27.747Z,102726.19
2022-09-21T06:40:56.722Z,102733.44
2022-09-21T06:43:24.897Z,102733.91
2022-09-21T06:45:57.473Z,102725.59
2022-09-21T06:48:26.884Z,102729.41
2022-09-21T06:51:00.405Z,102725.41
2022-09-21T06:53:29.657Z,102737.09
2022-09-21T06:56:02.932Z,102730.34
2022-09-21T06:58:34.178Z,102730.59
2022-09-21T07:01:08.215Z,102724.75
2022-09-21T07:03:37.325Z,102729.34
2022-09-21T07:06:08.640Z,102729.38
2022-09-21T07:11:25.221Z,102733.66
2022-09-21T07:13:53.421Z,102733.25
2022-09-21T07:16:22.403Z,102732.91
2022-09-21T07:18:50.510Z,102738.81
2022-09-21T07:21:20.025Z,102735.88
2022-09-21T07:23:48.952Z,102734.63
2022-09-21T07:26:17.390Z,102733.41
2022-09-21T07:28:45.806Z,102738.22
2022-09-21T07:31:16.010Z,102733.47
2022-09-21T07:33:46.484Z,102730.38
2022-09-21T07:36:14.730Z,102727.28
2022-09-21T07:38:45.634Z,102732.97
2022-09-21T07:41:15.579Z,102734.19
2022-09-21T07:43:44.321Z,102728.41
2022-09-21T07:46:15.620Z,102732.22
2022-09-21T07:48:43.734Z,102736.09
2022-09-21T07:51:14.503Z,102733.81
2022-09-21T07:53:45.416Z,102735.00
2022-09-21T07:56:16.197Z,102740.59
2022-09-21T07:59:02.753Z,102733.88
2022-09-21T08:01:31.901Z,102727.97
2022-09-21T08:04:01.097Z,102740.53
2022-09-21T08:06:33.071Z,102733.81
2022-09-21T08:09:04.494Z,102739.34
2022-09-21T08:11:34.286Z,102731.69
2022-09-21T08:14:04.129Z,102732.81
2022-09-21T08:16:34.053Z,102737.44
2022-09-21T08:19:03.124Z,102742.91
2022-09-21T08:21:31.940Z,102736.94
2022-09-21T08:24:00.139Z,102744.16
2022-09-21T08:26:29.690Z,102748.81
2022-09-21T08:28:58.801Z,102742.84
2022-09-21T08:31:27.566Z,102749.19
2022-09-21T08:33:57.561Z,102747.63
2022-09-21T08:36:26.434Z,102746.88
2022-09-21T08:38:57.602Z,102743.50
2022-09-21T08:41:37.207Z,102744.50
2022-09-21T08:44:12.885Z,102746.44
2022-09-21T08:46:43.678Z,102751.84
2022-09-21T08:49:16.403Z,102748.38
2022-09-21T08:51:50.845Z,102752.91
2022-09-21T08:54:28.050Z,102754.78
2022-09-21T08:57:06.135Z,102759.31
2022-09-21T08:59:36.165Z,102754.16
2022-09-21T09:02:28.680Z,102751.63
2022-09-21T09:05:08.052Z,102758.78
2022-09-21T09:08:11.562Z,102765.97
2022-09-21T09:10:44.347Z,102753.69
2022-09-21T09:13:46.519Z,102762.56
2022-09-21T09:16:20.477Z,102760.03
2022-09-21T09:18:54.160Z,102751.28
2022-09-21T09:21:31.809Z,102758.28
2022-09-21T09:24:05.828Z,102753.91
2022-09-21T09:26:42.745Z,102761.06
2022-09-21T09:29:23.058Z,102756.84
2022-09-21T09:31:54.631Z,102760.31
2022-09-21T09:34:29.854Z,102769.00
2022-09-21T09:37:02.544Z,102767.09
2022-09-21T09:39:31.943Z,102762.69
2022-09-21T09:42:29.089Z,102760.16
2022-09-21T09:45:28.753Z,102765.47
2022-09-21T09:48:28.115Z,102761.03
2022-09-21T09:50:57.343Z,102753.97
2022-09-21T09:53:28.292Z,102752.31
2022-09-21T09:55:58.384Z,102763.19
2022-09-21T09:58:40.719Z,102759.88
2022-09-21T10:01:10.223Z,102753.88
2022-09-21T10:03:38.445Z,102761.06
2022-09-21T10:06:07.024Z,102762.94
2022-09-21T10:08:44.623Z,102753.25
2022-09-21T10:11:15.222Z,102755.06
2022-09-21T10:13:45.211Z,102752.41
2022-09-21T10:16:20.520Z,102755.09
2022-09-21T10:18:51.917Z,102754.22
2022-09-21T10:21:24.193Z,102752.47
2022-09-21T10:23:55.392Z,102745.38
2022-09-21T10:26:24.229Z,102746.28
2022-09-21T10:29:01.065Z,102742.72
2022-09-21T10:31:31.806Z,102746.25
2022-09-21T10:34:15.928Z,102744.47
2022-09-21T10:36:52.421Z,102752.44
2022-09-21T10:39:24.486Z,102748.88
2022-09-21T10:41:58.356Z,102751.50
2022-09-21T10:44:34.911Z,102745.31
2022-09-21T10:47:18.834Z,102740.00
2022-09-21T10:49:51.554Z,102742.66
2022-09-21T10:52:23.845Z,102740.88
2022-09-21T10:54:56.223Z,102745.31
2022-09-21T10:57:27.833Z,102742.69
2022-09-21T10:59:57.262Z,102740.94
2022-09-21T11:02:39.373Z,102735.63
2022-09-21T11:05:16.552Z,102742.72
2022-09-21T11:07:52.299Z,102744.44
2022-09-21T11:10:29.819Z,102736.44
2022-09-21T11:13:19.339Z,102732.84
2022-09-21T11:15:56.558Z,102735.44
2022-09-21T11:18:39.655Z,102741.56
2022-09-21T11:21:16.196Z,102741.53
2022-09-21T11:23:54.769Z,102738.81
2022-09-21T11:26:29.001Z,102724.53
2022-09-21T11:29:06.766Z,102721.78
2022-09-21T11:31:45.670Z,102720.69
2022-09-21T11:34:47.586Z,102726.69
2022-09-21T11:37:29.778Z,102721.16
2022-09-21T11:40:23.861Z,102725.28
2022-09-21T11:43:08.405Z,102723.09
2022-09-21T11:45:58.916Z,102712.44
2022-09-21T11:48:43.533Z,102725.16
2022-09-21T11:51:38.314Z,102718.56
2022-09-21T11:54:42.896Z,102724.03
2022-09-21T11:57:19.132Z,102715.72
2022-09-21T12:00:10.116Z,102706.19
2022-09-21T12:03:23.209Z,102709.03
2022-09-21T12:06:11.079Z,102705.31
2022-09-21T12:08:59.997Z,102702.38
2022-09-21T12:11:38.042Z,102701.22
2022-09-21T12:14:22.420Z,102705.44
2022-09-21T12:16:59.116Z,102697.00
2022-09-21T12:19:37.509Z,102698.19
2022-09-21T12:22:12.801Z,102695.56
2022-09-21T12:24:47.717Z,102697.81
2022-09-21T12:27:27.248Z,102685.50
2022-09-21T12:30:00.806Z,102684.06
2022-09-21T12:32:40.996Z,102681.22
2022-09-21T12:35:17.169Z,102684.75
2022-09-21T12:37:51.165Z,102681.94
2022-09-21T12:40:27.878Z,102676.28
2022-09-21T12:43:08.446Z,102668.69
2022-09-21T12:45:47.522Z,102670.72
2022-09-21T12:48:28.123Z,102665.22
2022-09-21T12:51:05.825Z,102660.84
2022-09-21T12:53:38.825Z,102653.97
2022-09-21T12:56:14.577Z,102655.28
2022-09-21T12:59:06.676Z,102659.34
2022-09-21T13:01:43.271Z,102659.84
2022-09-21T13:04:34.424Z,102657.25
2022-09-21T13:07:32.861Z,102653.53
2022-09-21T13:10:02.849Z,102656.19
2022-09-21T13:12:40.042Z,102650.91
2022-09-21T13:15:21.899Z,102649.56
2022-09-21T13:18:01.055Z,102647.88
2022-09-21T13:20:35.557Z,102645.56
2022-09-21T13:23:04.291Z,102651.13
2022-09-21T13:25:37.445Z,102647.47
2022-09-21T13:28:24.163Z,102646.72
2022-09-21T13:31:57.947Z,102648.34
2022-09-21T13:34:30.412Z,102645.34
2022-09-21T13:37:31.098Z,102642.91
2022-09-21T13:40:38.772Z,102635.53
2022-09-21T13:43:50.608Z,102635.97
2022-09-21T13:47:05.992Z,102631.41
2022-09-21T13:49:50.772Z,102627.13
2022-09-21T13:52:35.429Z,102631.31
2022-09-21T13:55:06.971Z,102621.97
2022-09-21T13:57:40.473Z,102625.28
2022-09-21T14:00:33.626Z,102625.34
2022-09-21T14:03:04.791Z,102629.50
2022-09-21T14:05:39.314Z,102621.97
2022-09-21T14:08:19.950Z,102621.47
2022-09-21T14:10:55.235Z,102620.88
2022-09-21T14:13:37.057Z,102627.97
2022-09-21T14:16:55.957Z,102627.41
2022-09-21T14:20:00.970Z,102619.66
2022-09-21T14:22:43.769Z,102621.94
2022-09-21T14:25:39.777Z,102612.16
2022-09-21T14:28:14.338Z,102608.72
2022-09-21T14:30:52.827Z,102613.41
2022-09-21T14:33:31.574Z,102616.19
2022-09-21T14:36:03.662Z,102610.31
2022-09-21T14:38:40.433Z,102605.34
2022-09-21T14:41:12.846Z,102607.03
2022-09-21T14:43:52.121Z,102597.47
2022-09-21T14:46:47.515Z,102592.84
2022-09-21T14:49:41.019Z,102590.84
2022-09-21T14:52:31.914Z,102588.34
2022-09-21T14:55:15.845Z,102586.00
2022-09-21T14:58:17.502Z,102588.41
2022-09-21T15:00:50.239Z,102591.31
2022-09-21T15:03:48.938Z,102582.88
2022-09-21T15:06:45.845Z,102572.94
2022-09-21T15:09:55.305Z,102584.56
2022-09-21T15:12:32.196Z,102567.53
2022-09-21T15:15:24.761Z,102569.72
2022-09-21T15:17:59.727Z,102566.81
2022-09-21T15:20:32.054Z,102569.94
2022-09-21T15:23:04.149Z,102566.81
2022-09-21T15:25:35.163Z,102568.97
2022-09-21T15:28:06.785Z,102571.91
2022-09-21T15:30:45.891Z,102566.06
2022-09-21T15:33:14.929Z,102562.84
2022-09-21T15:35:48.037Z,102563.06
2022-09-21T15:38:30.863Z,102567.53
2022-09-21T15:41:03.428Z,102553.59
2022-09-21T15:43:34.437Z,102557.81
2022-09-21T15:46:04.914Z,102553.47
2022-09-21T15:48:36.701Z,102552.78
2022-09-21T15:51:12.327Z,102545.66
2022-09-21T15:53:47.035Z,102552.81
2022-09-21T15:56:22.103Z,102551.31
2022-09-21T15:58:51.095Z,102554.91
2022-09-21T16:01:24.554Z,102546.56
2022-09-21T16:04:06.614Z,102548.25
2022-09-21T16:06:41.538Z,102542.94
2022-09-21T16:09:49.570Z,102543.38
2022-09-21T16:12:41.745Z,102539.25
2022-09-21T16:15:19.626Z,102540.41
2022-09-21T16:18:02.929Z,102543.59
2022-09-21T16:20:47.372Z,102538.28
2022-09-21T16:23:18.984Z,102543.00
2022-09-21T16:25:57.067Z,102545.00
2022-09-21T16:28:36.154Z,102531.22
2022-09-21T16:31:31.572Z,102538.72
2022-09-21T16:34:27.090Z,102540.81
2022-09-21T16:36:58.134Z,102547.50
2022-09-21T16:39:27.327Z,102547.56
2022-09-21T16:42:04.072Z,102549.09
2022-09-21T16:44:40.072Z,102548.38
2022-09-21T16:47:15.669Z,102546.03
2022-09-21T16:49:44.817Z,102540.91
2022-09-21T16:52:12.939Z,102543.91
2022-09-21T16:54:41.243Z,102540.91
2022-09-21T16:57:14.311Z,102539.78
2022-09-21T16:59:42.696Z,102538.66
2022-09-21T17:02:14.281Z,102545.84
2022-09-21T17:04:43.095Z,102539.03
2022-09-21T17:07:13.151Z,102535.19
2022-09-21T17:09:44.361Z,102538.13
2022-09-21T17:12:18.564Z,102543.56
2022-09-21T17:14:47.563Z,102539.03
2022-09-21T17:17:20.706Z,102550.31
2022-09-21T17:19:51.804Z,102539.31
2022-09-21T17:22:21.847Z,102554.84
2022-09-21T17:24:52.538Z,102544.53
2022-09-21T17:27:26.712Z,102553.72
2022-09-21T17:29:56.478Z,102550.34
2022-09-21T17:32:26.342Z,102547.88
2022-09-21T17:35:00.123Z,102548.00
2022-09-21T17:37:29.315Z,102562.22
2022-09-21T17:39:57.480Z,102559.63
2022-09-21T17:42:36.925Z,102562.28
2022-09-21T17:45:18.559Z,102555.19
2022-09-21T17:47:48.347Z,102561.34
2022-09-21T17:50:24.009Z,102562.16
2022-09-21T17:53:10.441Z,102561.22
2022-09-21T17:55:40.267Z,102567.31
2022-09-21T17:58:35.508Z,102574.22
2022-09-21T18:01:08.568Z,102571.47
2022-09-21T18:03:41.107Z,102568.69
2022-09-21T18:06:11.559Z,102572.97
2022-09-21T18:08:41.429Z,102566.66
2022-09-21T18:11:34.238Z,102569.13
2022-09-21T18:14:17.292Z,102569.81
2022-09-21T18:16:56.994Z,102566.13
2022-09-21T18:19:41.299Z,102575.66
2022-09-21T18:22:20.333Z,102570.22
2022-09-21T18:24:49.485Z,102578.84
2022-09-21T18:27:20.038Z,102576.94
2022-09-21T18:29:50.633Z,102581.19
2022-09-21T18:32:43.236Z,102579.22
2022-09-21T18:35:37.757Z,102575.44
2022-09-21T18:38:24.393Z,102572.63
2022-09-21T18:41:09.089Z,102577.72
2022-09-21T18:43:53.073Z,102580.16
2022-09-21T18:46:33.977Z,102578.22
2022-09-21T18:49:12.055Z,102578.06
2022-09-21T18:51:47.318Z,102570.94
2022-09-21T18:54:20.717Z,102573.41
2022-09-21T18:56:49.242Z,102574.16
2022-09-21T18:59:18.553Z,102575.84
2022-09-21T19:01:50.641Z,102565.13
2022-09-21T19:04:20.106Z,102574.63
2022-09-21T19:06:56.128Z,102573.56
2022-09-21T19:09:41.810Z,102581.34
2022-09-21T19:12:22.045Z,102575.00
2022-09-21T19:15:08.927Z,102581.88
2022-09-21T19:17:57.136Z,102585.25
2022-09-21T19:20:52.088Z,102581.59
2022-09-21T19:23:32.446Z,102581.44
2022-09-21T19:26:12.106Z,102586.56
2022-09-21T19:29:13.014Z,102585.53
2022-09-21T19:31:41.453Z,102586.25
2022-09-21T19:34:16.827Z,102593.19
2022-09-21T19:36:47.123Z,102599.25
2022-09-21T19:39:16.691Z,102588.63
2022-09-21T19:41:58.810Z,102597.25
2022-09-21T19:44:58.784Z,102590.94
2022-09-21T19:47:31.615Z,102596.06
2022-09-21T19:50:17.037Z,102591.53
2022-09-21T19:52:46.145Z,102588.78
2022-09-21T19:55:35.734Z,102589.53
2022-09-21T19:58:23.079Z,102598.19
2022-09-21T20:00:54.466Z,102594.56
2022-09-21T20:03:31.763Z,102595.28
2022-09-21T20:06:08.961Z,102601.34
2022-09-21T20:08:44.312Z,102602.09
2022-09-21T20:11:17.152Z,102602.00
2022-09-21T20:14:06.297Z,102605.38
2022-09-21T20:16:45.078Z,102605.25
2022-09-21T20:19:46.421Z,102598.94
2022-09-21T20:22:21.401Z,102604.94
2022-09-21T20:24:59.410Z,102608.34
2022-09-21T20:27:34.826Z,102611.78
2022-09-21T20:30:12.222Z,102601.25
2022-09-21T20:32:44.604Z,102602.88
2022-09-21T20:35:19.033Z,102604.47
2022-09-21T20:37:49.061Z,102601.72
2022-09-21T20:40:17.425Z,102599.91
2022-09-21T20:42:45.717Z,102602.88
2022-09-21T20:45:15.354Z,102606.19
2022-09-21T20:47:43.957Z,102602.53
2022-09-21T20:50:13.603Z,102597.16
2022-09-21T20:52:45.129Z,102597.91
2022-09-21T20:55:17.289Z,102586.34
2022-09-21T20:57:46.070Z,102590.72
2022-09-21T21:00:18.189Z,102589.66
2022-09-21T21:02:46.583Z,102588.59
2022-09-21T21:05:14.753Z,102594.66
2022-09-21T21:07:43.939Z,102595.47
2022-09-21T21:10:15.592Z,102592.69
2022-09-21T21:12:45.834Z,102592.63
2022-09-21T21:15:14.459Z,102600.38
2022-09-21T21:17:43.181Z,102601.19
2022-09-21T21:20:12.025Z,102595.81
2022-09-21T21:22:40.137Z,102598.34
2022-09-21T21:25:09.448Z,102603.50
2022-09-21T21:27:39.354Z,102601.66
2022-09-21T21:30:09.902Z,102596.28
2022-09-21T21:32:38.174Z,102602.38
2022-09-21T21:35:08.078Z,102598.81
2022-09-21T21:37:36.312Z,102596.94
2022-09-21T21:40:05.272Z,102599.56
2022-09-21T21:42:34.288Z,102594.31
2022-09-21T21:45:04.130Z,102597.66
2022-09-21T21:47:39.630Z,102594.06
2022-09-21T21:50:09.811Z,102599.22
2022-09-21T21:52:38.248Z,102592.16
2022-09-21T21:55:07.810Z,102595.53
2022-09-21T21:57:35.918Z,102595.50
2022-09-21T22:00:09.648Z,102593.69
2022-09-21T22:02:37.815Z,102597.19
2022-09-21T22:05:06.920Z,102592.75
2022-09-21T22:07:35.372Z,102588.34
2022-09-21T22:10:03.471Z,102576.91
2022-09-21T22:12:31.700Z,102585.53
2022-09-21T22:14:59.815Z,102586.38
2022-09-21T22:17:29.424Z,102583.66
2022-09-21T22:19:57.560Z,102597.59
2022-09-21T22:22:25.847Z,102585.34
2022-09-21T22:24:53.938Z,102583.53
2022-09-21T22:27:22.336Z,102584.34
2022-09-21T22:29:50.400Z,102584.34
2022-09-21T22:32:18.834Z,102586.00
2022-09-21T22:34:50.035Z,102589.50
2022-09-21T22:37:18.251Z,102588.50
2022-09-21T22:39:46.311Z,102587.44
2022-09-21T22:42:14.504Z,102580.25
2022-09-21T22:44:42.654Z,102577.47
2022-09-21T22:47:10.742Z,102584.31
2022-09-21T22:49:38.863Z,102579.91
2022-09-21T22:52:08.418Z,102582.41
2022-09-21T22:54:36.516Z,102582.31
2022-09-21T22:57:05.417Z,102582.31
2022-09-21T22:59:33.559Z,102580.56
2022-09-21T23:02:01.702Z,102584.78
2022-09-21T23:04:29.859Z,102585.59
2022-09-21T23:06:58.051Z,102572.22
2022-09-21T23:09:27.588Z,102582.75
2022-09-21T23:11:55.725Z,102573.00
2022-09-21T23:14:24.519Z,102566.78
2022-09-21T23:16:53.131Z,102571.03
2022-09-21T23:19:21.257Z,102576.16
2022-09-21T23:21:52.856Z,102565.53
2022-09-21T23:24:21.851Z,102577.75
2022-09-21T23:26:51.806Z,102563.59
2022-09-21T23:29:20.481Z,102569.34
2022-09-21T23:31:49.044Z,102577.94
2022-09-21T23:34:17.649Z,102574.28
2022-09-21T23:36:46.502Z,102570.63
2022-09-21T23:39:16.556Z,102567.84
2022-09-21T23:41:45.197Z,102561.53
2022-09-21T23:44:14.827Z,102565.81
2022-09-21T23:46:43.624Z,102570.97
2022-09-21T23:49:11.815Z,102572.63
2022-09-21T23:51:40.728Z,102570.00
2022-09-21T23:54:09.314Z,102563.84
2022-09-21T23:56:37.892Z,102551.66
2022-09-21T23:59:07.033Z,102550.72
